Straumvik — LEYJ — position and weather

sailwx.info

Track history (hours):
 
Tides and Currents Weather Stations Pressure Air Temp Water Temp Dewpoint Dewpoint Depression Visibility Wind Speed Wind Dir Waves Ship Positions

Straumvik

Last reported at 2015-Sep-05 03:33 UTC. Time now 2015-Sep-05 03:46 UTC.
Position N 59°54' E 005°43'.

Length 50 m; draft 5 m.

Type: Ship. MMSI: 258260000.

Date/timePositionNaut miles runAvg speedWind from/ knotsBaromVisibWave heightAir tempDewpointWater temp
2015-Sep-05 03:33N 59°54' E 005°43'4 3.5
2015-Sep-05 02:32N 59°57' E 005°38'4 3.9
2015-Sep-05 01:33N 59°53' E 005°40'  
2015-Sep-01 14:17N 63°38' E 009°28'5 7.2
2015-Sep-01 13:34N 63°43' E 009°31'9 8.4
2015-Sep-01 12:33N 63°51' E 009°39'8 8.2
2015-Sep-01 11:33N 63°58' E 009°47'57 8.0
2015-Sep-01 04:22N 64°46' E 011°01'7 8.9
2015-Sep-01 03:33N 64°51' E 011°13'9 9.2
2015-Sep-01 02:33N 64°57' E 011°29'8 8.5
2015-Sep-01 01:33N 65°03' E 011°43'9 8.5
2015-Sep-01 00:33N 65°11' E 011°51'8 8.5
2015-Aug-31 23:34N 65°18' E 011°59'71 7.9
2015-Aug-31 14:32N 66°25' E 012°59'34 7.7
2015-Aug-31 10:08N 66°57' E 013°29'4 7.2
2015-Aug-31 09:33N 66°60' E 013°37'8 8.0
2015-Aug-31 08:33N 67°04' E 013°54'8 7.8
2015-Aug-31 07:33N 67°11' E 014°04'8 7.5
2015-Aug-31 06:34N 67°17' E 014°15'7 7.4
2015-Aug-31 05:34N 67°23' E 014°26'7 7.3
2015-Aug-31 04:33N 67°29' E 014°36'  
Track history (hours):
 
Tides and Currents Weather Stations Pressure Air Temp Water Temp Dewpoint Dewpoint Depression Visibility Wind Speed Wind Dir Waves Ship Positions

Straumvik

Last reported at 2015-Sep-05 03:33 UTC. Time now 2015-Sep-05 03:46 UTC.
Position N 59°54' E 005°43'.

Length 50 m; draft 5 m.

Type: Ship. MMSI: 258260000.

Date/timePositionNaut miles runAvg speedWind from/ knotsBaromVisibWave heightAir tempDewpointWater temp
2015-Sep-05 03:33N 59°54' E 005°43'4 3.5
2015-Sep-05 02:32N 59°57' E 005°38'4 3.9
2015-Sep-05 01:33N 59°53' E 005°40'  
2015-Sep-01 14:17N 63°38' E 009°28'5 7.2
2015-Sep-01 13:34N 63°43' E 009°31'9 8.4
2015-Sep-01 12:33N 63°51' E 009°39'8 8.2
2015-Sep-01 11:33N 63°58' E 009°47'57 8.0
2015-Sep-01 04:22N 64°46' E 011°01'7 8.9
2015-Sep-01 03:33N 64°51' E 011°13'9 9.2
2015-Sep-01 02:33N 64°57' E 011°29'8 8.5
2015-Sep-01 01:33N 65°03' E 011°43'9 8.5
2015-Sep-01 00:33N 65°11' E 011°51'8 8.5
2015-Aug-31 23:34N 65°18' E 011°59'71 7.9
2015-Aug-31 14:32N 66°25' E 012°59'34 7.7
2015-Aug-31 10:08N 66°57' E 013°29'4 7.2
2015-Aug-31 09:33N 66°60' E 013°37'8 8.0
2015-Aug-31 08:33N 67°04' E 013°54'8 7.8
2015-Aug-31 07:33N 67°11' E 014°04'8 7.5
2015-Aug-31 06:34N 67°17' E 014°15'7 7.4
2015-Aug-31 05:34N 67°23' E 014°26'7 7.3
2015-Aug-31 04:33N 67°29' E 014°36'  

Dump ship's entire track history